Pagina principale
METAR-TAF:

METAR-TAF

Aeroporti :

Sanandaj, Iran

latitudine: 35-20N, longitudine: 047-00E, altezza: 1373 m

Osservazione

Il bollettino è stato emesso 14 ore e 37 minuti fa, alle 11:00 UTC
Vento 2 kt da direzioni variabili
Temperature 26°C
Umidità 11%
Pressione 1023 hPa
Visibilità 10 km o più
nessuna nube inferiore a 1500 m e nessun cumulonembo

METAR: OICS 241100Z VRB02KT CAVOK 26/M07 Q1022 A3020

Ora: 05:07 (01:37 UTC)


TAF: mancante

Osservazioni e previsioni meteorologiche di più di 4000 aeroporti (messaggi METAR e TAF).

Le stazioni disponibili sono rappresentate dai dischi gialli e rossi sulla carta.

Puntare il mouse per vedere il nome della stazione.

Clicca sopra per visualizzare le osservazioni e previsioni meteorologiche.

Per cambiare la mappa : fare clic sui pulsanti verdi con una croce nera per ingrandire, il pulsante verde con un trattino per diminuire, o sulla freccia verde per le mappe adiacenti.


METAR-TAF: